MMGM/GYM METAR and TAF weather

Enter ICAO airport designator
Station Type Date Time Source
MMGM METAR 2020/01/24 01:40 UTC NOAA

MMGM 240140Z 00000KT 10SM SKC 19/16 A2987


Station Type Date Time Source
MMGM Decoded METAR 2020/01/24 01:40 UTC NOAA

Guaymas International Airport, Mexico (MMGM) 27-58N 110-56W
Jan 23, 2020 - 08:40 PM EST / 2020.01.24 0140 UTC
Wind: Calm:0
Visibility: 10 mile(s):0
Sky conditions: clear
Temperature: 66 F (19 C)
Dew Point: 60 F (16 C)
Relative Humidity: 82%
Pressure (altimeter): 29.87 in. Hg (1011 hPa)
ob: MMGM 240140Z 00000KT 10SM SKC 19/16 A2987
cycle: 1

Station Type Date Time Source
MMGM TAF 2020/01/24 06:09 UTC NOAA

TAF MMGM 240502Z 2406/2506 00000KT P6SM SKC
FM241000 00000KT 5SM HZ SKC
TEMPO 2412/2415 2SM BR SCT010
FM241800 34010KT P6SM SKC
FM250400 33005KT P6SM SKC

Example: see airport list